Costa Serena — ICAZ — position and weather

sailwx.info

Track history (hours):
 
Tides and Currents Weather Stations Pressure Air Temp Water Temp Dewpoint Dewpoint Depression Visibility Wind Speed Wind Dir Waves Ship Positions

Costa Serena

Last reported at 2017-Apr-20 23:40 UTC. Time now 2017-Apr-24 11:16 UTC.
Position N 31°25' E 121°31'.

Length 290 m; draft 8.3 m.

Type: Ship. MMSI: 247187600.

Date/timePositionNaut miles runAvg speedWind from/ knotsBaromVisibWave heightAir tempDewpointWater temp
2017-Apr-20 23:40N 31°25' E 121°31'  
2017-Apr-13 20:01N 31°10' E 124°15'018.5
2017-Apr-13 20:00N 31°10' E 124°15'714.1
2017-Apr-13 19:30N 31°10' E 124°07'714.3
2017-Apr-13 19:00N 31°09' E 123°59'2214.0
2017-Apr-13 17:25N 31°07' E 123°33'614.1
2017-Apr-13 17:00N 31°06' E 123°26'713.7
2017-Apr-13 16:31N 31°04' E 123°18'612.6
2017-Apr-13 16:00N 31°04' E 123°11'611.9
2017-Apr-13 15:30N 31°06' E 123°04'612.6
2017-Apr-13 15:01N 31°05' E 122°57'612.1
2017-Apr-13 14:31N 31°06' E 122°50'1211.7
2017-Apr-13 13:31N 31°06' E 122°37'713.0
2017-Apr-13 13:00N 31°05' E 122°29'5 9.4
2017-Apr-13 12:30N 31°06' E 122°24'5 9.3
2017-Apr-13 12:00N 31°06' E 122°18'612.6
2017-Apr-13 11:30N 31°10' E 122°12'714.2
2017-Apr-13 11:00N 31°14' E 122°05'714.9
2017-Apr-13 10:30N 31°15' E 121°57'714.5
2017-Apr-13 10:00N 31°17' E 121°48'714.0
2017-Apr-13 09:31N 31°20' E 121°41'611.6
2017-Apr-13 09:01N 31°23' E 121°35'4 9.0
2017-Apr-13 08:31N 31°25' E 121°30'0 0.2
2017-Apr-13 08:01N 31°25' E 121°30'0 0.0
2017-Apr-13 07:30N 31°25' E 121°30'0 0.0
2017-Apr-13 07:00N 31°25' E 121°30'0 0.0
2017-Apr-13 06:29N 31°25' E 121°30'0 0.0
2017-Apr-13 05:56N 31°25' E 121°30'0 0.0
2017-Apr-13 05:26N 31°25' E 121°30'0 0.0
2017-Apr-13 04:59N 31°25' E 121°30'0 0.0
2017-Apr-13 04:26N 31°25' E 121°30'0 0.0
2017-Apr-13 03:59N 31°25' E 121°30'0 0.0
2017-Apr-13 03:28N 31°25' E 121°30'0 0.0
2017-Apr-13 02:58N 31°25' E 121°30'0 0.0
2017-Apr-13 02:30N 31°25' E 121°30'0 0.0
2017-Apr-13 02:00N 31°25' E 121°30'0 0.0
2017-Apr-13 01:30N 31°25' E 121°30'0 0.0
2017-Apr-13 00:54N 31°25' E 121°30'0 0.0
2017-Apr-13 00:30N 31°25' E 121°30'0 0.0
2017-Apr-12 23:59N 31°25' E 121°30'0 0.0
2017-Apr-12 23:29N 31°25' E 121°30'0 0.0
2017-Apr-12 22:59N 31°25' E 121°30'0 0.0
2017-Apr-12 22:29N 31°25' E 121°30'0 0.0
2017-Apr-12 21:59N 31°25' E 121°30'0 0.0
2017-Apr-12 21:28N 31°25' E 121°30'0 0.0
2017-Apr-12 20:58N 31°25' E 121°30'0 0.0
2017-Apr-12 20:28N 31°25' E 121°30'0 0.0
2017-Apr-12 19:58N 31°25' E 121°30'0 0.0
2017-Apr-12 19:30N 31°25' E 121°30'0 0.0
2017-Apr-12 19:00N 31°25' E 121°30'0 0.0
2017-Apr-12 18:30N 31°25' E 121°30'0 0.0
2017-Apr-12 17:51N 31°25' E 121°30'0 0.0
2017-Apr-12 17:30N 31°25' E 121°30'2 4.5
2017-Apr-12 17:00N 31°24' E 121°33'612.0
2017-Apr-12 16:30N 31°21' E 121°39'611.4
2017-Apr-12 16:00N 31°19' E 121°45'611.5
2017-Apr-12 15:30N 31°16' E 121°51'510.4
2017-Apr-12 15:00N 31°15' E 121°57'5 9.3
2017-Apr-12 14:30N 31°14' E 122°02'1110.5
2017-Apr-12 13:30N 31°09' E 122°13'5 9.8
2017-Apr-12 13:00N 31°07' E 122°18'510.7
2017-Apr-12 12:30N 31°06' E 122°24'611.1
2017-Apr-12 12:00N 31°07' E 122°30'917.1
2017-Apr-12 11:30N 31°07' E 122°40'816.7
2017-Apr-12 11:00N 31°09' E 122°50'815.1
2017-Apr-12 10:29N 31°09' E 122°59'612.5
2017-Apr-12 09:58N 31°09' E 123°06'1012.4
2017-Apr-12 09:10N 31°08' E 123°18'212.7
2017-Apr-12 09:00N 31°08' E 123°20'  
Track history (hours):
 
Tides and Currents Weather Stations Pressure Air Temp Water Temp Dewpoint Dewpoint Depression Visibility Wind Speed Wind Dir Waves Ship Positions

Costa Serena

Last reported at 2017-Apr-20 23:40 UTC. Time now 2017-Apr-24 11:16 UTC.
Position N 31°25' E 121°31'.

Length 290 m; draft 8.3 m.

Type: Ship. MMSI: 247187600.

Date/timePositionNaut miles runAvg speedWind from/ knotsBaromVisibWave heightAir tempDewpointWater temp
2017-Apr-20 23:40N 31°25' E 121°31'  
2017-Apr-13 20:01N 31°10' E 124°15'018.5
2017-Apr-13 20:00N 31°10' E 124°15'714.1
2017-Apr-13 19:30N 31°10' E 124°07'714.3
2017-Apr-13 19:00N 31°09' E 123°59'2214.0
2017-Apr-13 17:25N 31°07' E 123°33'614.1
2017-Apr-13 17:00N 31°06' E 123°26'713.7
2017-Apr-13 16:31N 31°04' E 123°18'612.6
2017-Apr-13 16:00N 31°04' E 123°11'611.9
2017-Apr-13 15:30N 31°06' E 123°04'612.6
2017-Apr-13 15:01N 31°05' E 122°57'612.1
2017-Apr-13 14:31N 31°06' E 122°50'1211.7
2017-Apr-13 13:31N 31°06' E 122°37'713.0
2017-Apr-13 13:00N 31°05' E 122°29'5 9.4
2017-Apr-13 12:30N 31°06' E 122°24'5 9.3
2017-Apr-13 12:00N 31°06' E 122°18'612.6
2017-Apr-13 11:30N 31°10' E 122°12'714.2
2017-Apr-13 11:00N 31°14' E 122°05'714.9
2017-Apr-13 10:30N 31°15' E 121°57'714.5
2017-Apr-13 10:00N 31°17' E 121°48'714.0
2017-Apr-13 09:31N 31°20' E 121°41'611.6
2017-Apr-13 09:01N 31°23' E 121°35'4 9.0
2017-Apr-13 08:31N 31°25' E 121°30'0 0.2
2017-Apr-13 08:01N 31°25' E 121°30'0 0.0
2017-Apr-13 07:30N 31°25' E 121°30'0 0.0
2017-Apr-13 07:00N 31°25' E 121°30'0 0.0
2017-Apr-13 06:29N 31°25' E 121°30'0 0.0
2017-Apr-13 05:56N 31°25' E 121°30'0 0.0
2017-Apr-13 05:26N 31°25' E 121°30'0 0.0
2017-Apr-13 04:59N 31°25' E 121°30'0 0.0
2017-Apr-13 04:26N 31°25' E 121°30'0 0.0
2017-Apr-13 03:59N 31°25' E 121°30'0 0.0
2017-Apr-13 03:28N 31°25' E 121°30'0 0.0
2017-Apr-13 02:58N 31°25' E 121°30'0 0.0
2017-Apr-13 02:30N 31°25' E 121°30'0 0.0
2017-Apr-13 02:00N 31°25' E 121°30'0 0.0
2017-Apr-13 01:30N 31°25' E 121°30'0 0.0
2017-Apr-13 00:54N 31°25' E 121°30'0 0.0
2017-Apr-13 00:30N 31°25' E 121°30'0 0.0
2017-Apr-12 23:59N 31°25' E 121°30'0 0.0
2017-Apr-12 23:29N 31°25' E 121°30'0 0.0
2017-Apr-12 22:59N 31°25' E 121°30'0 0.0
2017-Apr-12 22:29N 31°25' E 121°30'0 0.0
2017-Apr-12 21:59N 31°25' E 121°30'0 0.0
2017-Apr-12 21:28N 31°25' E 121°30'0 0.0
2017-Apr-12 20:58N 31°25' E 121°30'0 0.0
2017-Apr-12 20:28N 31°25' E 121°30'0 0.0
2017-Apr-12 19:58N 31°25' E 121°30'0 0.0
2017-Apr-12 19:30N 31°25' E 121°30'0 0.0
2017-Apr-12 19:00N 31°25' E 121°30'0 0.0
2017-Apr-12 18:30N 31°25' E 121°30'0 0.0
2017-Apr-12 17:51N 31°25' E 121°30'0 0.0
2017-Apr-12 17:30N 31°25' E 121°30'2 4.5
2017-Apr-12 17:00N 31°24' E 121°33'612.0
2017-Apr-12 16:30N 31°21' E 121°39'611.4
2017-Apr-12 16:00N 31°19' E 121°45'611.5
2017-Apr-12 15:30N 31°16' E 121°51'510.4
2017-Apr-12 15:00N 31°15' E 121°57'5 9.3
2017-Apr-12 14:30N 31°14' E 122°02'1110.5
2017-Apr-12 13:30N 31°09' E 122°13'5 9.8
2017-Apr-12 13:00N 31°07' E 122°18'510.7
2017-Apr-12 12:30N 31°06' E 122°24'611.1
2017-Apr-12 12:00N 31°07' E 122°30'917.1
2017-Apr-12 11:30N 31°07' E 122°40'816.7
2017-Apr-12 11:00N 31°09' E 122°50'815.1
2017-Apr-12 10:29N 31°09' E 122°59'612.5
2017-Apr-12 09:58N 31°09' E 123°06'1012.4
2017-Apr-12 09:10N 31°08' E 123°18'212.7
2017-Apr-12 09:00N 31°08' E 123°20'  

Dump ship's entire track history